Time;durP1;ratioP1;P1;durP2;ratioP2;P2;SDS_P1;SDS_P2;PMS_P1;PMS_P2;Temp;Humidity;BMP_temperature;BMP_pressure;BME280_temperature;BME280_humidity;BME280_pressure;Samples;Min_cycle;Max_cycle;Signal;HPM_P1;HPM_P2
2021/03/17 00:00:38;;;;;;;1.88;0.90;;;21.20;32.10;;;;;;5057552;28;20389;-62
2021/03/17 00:03:04;;;;;;;1.95;0.90;;;21.30;32.10;;;;;;5057437;28;20412;-61
2021/03/17 00:05:32;;;;;;;2.00;1.08;;;21.20;32.00;;;;;;5055905;28;20476;-62
2021/03/17 00:07:58;;;;;;;1.45;0.77;;;21.20;32.10;;;;;;5056105;28;20394;-62
2021/03/17 00:10:25;;;;;;;2.13;0.90;;;21.20;32.00;;;;;;5057532;28;20385;-62
2021/03/17 00:12:52;;;;;;;2.35;0.95;;;21.20;32.00;;;;;;5057484;28;20389;-62
2021/03/17 00:15:20;;;;;;;1.42;0.80;;;21.20;32.10;;;;;;5056824;28;20394;-62
2021/03/17 00:17:46;;;;;;;1.88;0.90;;;21.20;32.00;;;;;;5057529;28;20443;-62
2021/03/17 00:20:11;;;;;;;1.20;0.60;;;21.20;31.90;;;;;;5057403;28;20424;-62
2021/03/17 00:22:38;;;;;;;1.92;0.77;;;21.20;31.90;;;;;;5057540;28;20400;-62
2021/03/17 00:25:04;;;;;;;1.42;0.77;;;21.20;31.90;;;;;;5057127;28;20381;-61
2021/03/17 00:27:29;;;;;;;1.67;0.70;;;21.20;31.80;;;;;;5057165;28;20420;-62
2021/03/17 00:29:55;;;;;;;1.08;0.70;;;21.20;31.80;;;;;;5056931;28;20397;-62
2021/03/17 00:32:21;;;;;;;1.27;0.57;;;21.20;31.80;;;;;;5055899;28;20409;-62
2021/03/17 00:34:46;;;;;;;1.40;0.60;;;21.20;31.80;;;;;;5053310;28;20885;-62
2021/03/17 00:37:12;;;;;;;1.60;0.80;;;21.20;31.70;;;;;;5053602;28;20421;-63
2021/03/17 00:39:38;;;;;;;1.23;0.60;;;21.20;31.70;;;;;;5054166;28;20396;-62
2021/03/17 00:42:04;;;;;;;1.27;0.70;;;21.20;31.70;;;;;;5054080;28;20385;-62
2021/03/17 00:44:29;;;;;;;1.33;0.73;;;21.20;31.70;;;;;;5054084;28;20796;-62
2021/03/17 00:46:55;;;;;;;1.50;0.60;;;21.20;31.70;;;;;;5054065;28;20395;-62
2021/03/17 00:49:20;;;;;;;1.53;0.70;;;21.20;31.70;;;;;;5053508;28;20412;-63
2021/03/17 00:51:46;;;;;;;1.70;0.60;;;21.20;31.70;;;;;;5052662;28;20842;-62
2021/03/17 00:54:12;;;;;;;1.35;0.60;;;21.10;31.60;;;;;;5053813;28;20385;-63
2021/03/17 00:56:38;;;;;;;1.17;0.60;;;21.20;31.70;;;;;;5053722;28;20517;-62
2021/03/17 00:59:04;;;;;;;1.20;0.53;;;21.20;31.70;;;;;;5053497;28;20403;-62
2021/03/17 01:01:29;;;;;;;1.15;0.50;;;21.20;31.60;;;;;;5053205;28;20954;-62
2021/03/17 01:03:55;;;;;;;1.50;0.60;;;21.10;31.60;;;;;;5053661;28;20385;-62
2021/03/17 01:06:20;;;;;;;1.02;0.60;;;21.20;31.60;;;;;;5053546;28;20394;-62
2021/03/17 01:08:46;;;;;;;1.20;0.60;;;21.20;31.60;;;;;;5034655;28;20407;-61
2021/03/17 01:11:12;;;;;;;1.17;0.50;;;21.10;31.50;;;;;;5032552;28;20893;-61
2021/03/17 01:13:38;;;;;;;1.10;0.60;;;21.10;31.50;;;;;;5033566;28;20418;-62
2021/03/17 01:16:04;;;;;;;0.80;0.40;;;21.20;31.60;;;;;;5033167;28;20439;-62
2021/03/17 01:18:30;;;;;;;1.17;0.50;;;21.10;31.50;;;;;;5033266;28;20391;-61
2021/03/17 01:20:55;;;;;;;1.27;0.60;;;21.10;31.50;;;;;;5033387;28;20928;-62
2021/03/17 01:23:21;;;;;;;1.33;0.50;;;21.10;31.50;;;;;;5032693;28;20391;-61
2021/03/17 01:25:47;;;;;;;0.90;0.47;;;21.10;31.50;;;;;;5033351;28;20387;-62
2021/03/17 01:28:14;;;;;;;1.13;0.68;;;21.10;31.40;;;;;;5033186;28;20394;-62
2021/03/17 01:30:46;;;;;;;1.13;0.40;;;21.10;31.50;;;;;;5033068;28;20893;-61
2021/03/17 01:33:13;;;;;;;1.08;0.52;;;21.10;31.50;;;;;;5032867;28;20399;-62
2021/03/17 01:35:44;;;;;;;0.88;0.50;;;21.10;31.50;;;;;;5032992;28;20387;-62
2021/03/17 01:38:10;;;;;;;1.17;0.50;;;21.10;31.40;;;;;;5032947;28;20395;-62
2021/03/17 01:40:39;;;;;;;1.08;0.50;;;21.10;31.40;;;;;;5033139;28;20391;-62
2021/03/17 01:43:05;;;;;;;0.98;0.43;;;21.10;31.50;;;;;;5032934;28;20383;-61
2021/03/17 01:45:31;;;;;;;1.17;0.60;;;21.00;31.40;;;;;;5032186;28;20395;-62
2021/03/17 01:47:57;;;;;;;1.13;0.47;;;21.00;31.40;;;;;;5032877;28;20390;-62
2021/03/17 01:50:24;;;;;;;1.13;0.50;;;21.00;31.30;;;;;;5032867;28;20725;-62
2021/03/17 01:52:50;;;;;;;1.17;0.60;;;21.00;31.30;;;;;;5031570;28;20423;-62
2021/03/17 01:55:17;;;;;;;0.90;0.50;;;21.00;31.40;;;;;;5031763;28;20387;-61
2021/03/17 01:57:44;;;;;;;1.02;0.50;;;21.00;31.30;;;;;;5032685;28;20442;-62
2021/03/17 02:00:13;;;;;;;0.77;0.40;;;21.00;31.30;;;;;;5031688;28;20379;-61
2021/03/17 02:02:46;;;;;;;1.00;0.50;;;21.00;31.30;;;;;;5037475;28;20448;-62
2021/03/17 02:05:14;;;;;;;0.95;0.45;;;21.00;31.30;;;;;;5032649;28;20819;-62
2021/03/17 02:07:40;;;;;;;0.90;0.43;;;21.00;31.30;;;;;;5017802;28;20394;-62
2021/03/17 02:10:11;;;;;;;1.10;0.40;;;21.00;31.20;;;;;;5022777;28;20389;-62
2021/03/17 02:12:55;;;;;;;0.85;0.50;;;21.00;31.20;;;;;;5012822;28;20385;-62
2021/03/17 02:15:30;;;;;;;1.10;0.50;;;21.00;31.30;;;;;;5012200;28;20420;-62
2021/03/17 02:18:03;;;;;;;1.20;0.52;;;21.00;31.20;;;;;;5012478;28;20401;-62
2021/03/17 02:20:45;;;;;;;0.90;0.40;;;21.00;31.20;;;;;;5011886;28;20749;-62
2021/03/17 02:23:22;;;;;;;1.50;0.40;;;21.00;31.20;;;;;;5012121;28;20427;-62
2021/03/17 02:26:07;;;;;;;1.15;0.50;;;21.00;31.20;;;;;;5012543;28;20401;-63
2021/03/17 02:28:59;;;;;;;1.10;0.50;;;21.00;31.20;;;;;;5012496;28;20385;-62
2021/03/17 02:31:25;;;;;;;1.00;0.60;;;21.00;31.20;;;;;;5011771;28;20416;-62
2021/03/17 02:34:13;;;;;;;0.80;0.45;;;21.00;31.20;;;;;;5010921;28;20396;-62
2021/03/17 02:36:59;;;;;;;0.60;0.40;;;21.00;31.20;;;;;;5011873;28;20447;-61
2021/03/17 02:39:27;;;;;;;0.87;0.40;;;20.90;31.20;;;;;;5011652;28;20753;-62
2021/03/17 02:42:15;;;;;;;0.77;0.40;;;20.90;31.10;;;;;;5012320;28;20439;-61
2021/03/17 02:44:48;;;;;;;0.80;0.40;;;20.90;31.10;;;;;;5011889;28;20451;-62
2021/03/17 02:47:16;;;;;;;1.05;0.50;;;20.90;31.10;;;;;;5027054;28;20420;-62
2021/03/17 02:49:45;;;;;;;0.85;0.40;;;20.90;31.10;;;;;;5012188;28;20416;-62
2021/03/17 02:52:12;;;;;;;0.70;0.32;;;20.90;31.10;;;;;;5012133;28;20416;-62
2021/03/17 02:54:42;;;;;;;0.70;0.30;;;20.90;31.10;;;;;;5012112;28;20416;-62
2021/03/17 02:57:16;;;;;;;0.50;0.30;;;20.90;31.10;;;;;;5011234;28;20995;-61
2021/03/17 02:59:44;;;;;;;0.55;0.30;;;20.90;31.10;;;;;;5010757;28;20404;-62
2021/03/17 03:02:11;;;;;;;0.70;0.30;;;20.90;31.30;;;;;;5011858;28;20472;-62
2021/03/17 03:04:38;;;;;;;1.00;0.30;;;20.90;31.10;;;;;;5011941;28;20412;-62
2021/03/17 03:07:05;;;;;;;0.80;0.40;;;20.90;31.20;;;;;;5011813;28;20396;-61
2021/03/17 03:09:30;;;;;;;0.68;0.30;;;20.90;31.10;;;;;;5011372;28;20385;-62
2021/03/17 03:11:58;;;;;;;0.52;0.30;;;20.90;31.10;;;;;;5012144;28;20408;-61
2021/03/17 03:14:26;;;;;;;0.70;0.30;;;20.90;31.10;;;;;;5011679;28;20527;-61
2021/03/17 03:16:56;;;;;;;0.50;0.30;;;20.90;31.10;;;;;;5011822;28;20424;-62
2021/03/17 03:19:26;;;;;;;0.60;0.30;;;20.90;31.10;;;;;;5011030;28;20385;-62
2021/03/17 03:21:53;;;;;;;0.70;0.40;;;20.90;31.10;;;;;;5011638;28;20415;-62
2021/03/17 03:24:19;;;;;;;0.70;0.30;;;20.90;31.10;;;;;;5011686;28;20424;-62
2021/03/17 03:26:52;;;;;;;0.70;0.30;;;20.80;31.10;;;;;;5011747;28;20800;-62
2021/03/17 03:29:18;;;;;;;0.77;0.30;;;20.80;31.00;;;;;;5011352;28;20391;-61
2021/03/17 03:31:44;;;;;;;0.80;0.40;;;20.80;31.00;;;;;;5011455;28;20495;-62
2021/03/17 03:34:10;;;;;;;0.50;0.30;;;20.80;31.00;;;;;;5011544;28;20380;-60
2021/03/17 03:36:36;;;;;;;0.68;0.38;;;20.80;31.00;;;;;;5010837;28;20424;-62
2021/03/17 03:39:03;;;;;;;0.40;0.30;;;20.80;31.00;;;;;;5011373;28;20796;-62
2021/03/17 03:41:29;;;;;;;0.50;0.30;;;20.90;31.00;;;;;;5011183;28;20889;-62
2021/03/17 03:43:54;;;;;;;0.73;0.40;;;20.80;30.90;;;;;;5011480;28;20392;-62
2021/03/17 03:46:20;;;;;;;0.80;0.43;;;20.90;31.00;;;;;;5011412;28;20458;-62
2021/03/17 03:48:46;;;;;;;0.95;0.43;;;20.80;31.00;;;;;;5010218;28;20393;-62
2021/03/17 03:51:11;;;;;;;0.57;0.30;;;20.80;31.00;;;;;;5011364;28;20893;-62
2021/03/17 03:54:14;;;;;;;0.80;0.40;;;20.80;31.00;;;;;;5011051;28;20408;-62
2021/03/17 03:57:02;;;;;;;0.57;0.30;;;20.80;31.00;;;;;;5010940;28;20428;-62
2021/03/17 03:59:35;;;;;;;0.57;0.30;;;20.80;30.90;;;;;;5010936;28;20392;-62
2021/03/17 04:02:02;;;;;;;1.30;0.50;;;20.80;31.00;;;;;;5011355;28;20487;-62
2021/03/17 04:04:32;;;;;;;0.95;0.50;;;20.80;30.90;;;;;;5011374;28;20392;-62
2021/03/17 04:07:02;;;;;;;0.80;0.43;;;20.80;30.90;;;;;;5011347;28;20385;-62
2021/03/17 04:09:38;;;;;;;0.98;0.43;;;20.80;30.90;;;;;;5013849;28;20443;-62
2021/03/17 04:12:06;;;;;;;1.00;0.43;;;20.80;30.90;;;;;;5013501;28;20431;-62
2021/03/17 04:14:35;;;;;;;1.27;0.60;;;20.80;31.60;;;;;;5014852;28;20475;-62
2021/03/17 04:17:06;;;;;;;1.33;0.63;;;20.80;30.90;;;;;;5014763;28;20440;-61
2021/03/17 04:19:35;;;;;;;1.13;0.60;;;20.80;30.90;;;;;;5014631;28;20401;-61
2021/03/17 04:22:01;;;;;;;1.55;0.80;;;20.70;30.90;;;;;;5023020;28;20399;-61
2021/03/17 04:24:29;;;;;;;1.40;0.70;;;20.70;30.90;;;;;;5034478;28;20390;-62
2021/03/17 04:26:57;;;;;;;2.55;0.98;;;20.80;30.90;;;;;;5020107;28;20408;-61
2021/03/17 04:29:24;;;;;;;3.97;0.80;;;20.70;31.20;;;;;;5015260;28;20464;-61
2021/03/17 04:31:51;;;;;;;3.22;0.80;;;20.70;31.10;;;;;;5014432;28;20417;-62
2021/03/17 04:34:18;;;;;;;2.90;0.90;;;20.70;31.30;;;;;;5014524;28;20431;-61
2021/03/17 04:36:45;;;;;;;4.00;0.95;;;20.70;31.40;;;;;;5014269;28;20408;-62
2021/03/17 04:39:12;;;;;;;2.35;1.02;;;20.70;31.40;;;;;;5013155;28;20409;-62
2021/03/17 04:41:38;;;;;;;3.35;1.02;;;20.70;31.30;;;;;;5013858;28;20388;-63
2021/03/17 04:44:04;;;;;;;2.40;1.00;;;20.70;31.30;;;;;;5014309;28;20488;-61
2021/03/17 04:46:31;;;;;;;2.90;1.17;;;20.70;31.20;;;;;;5014238;28;20420;-62
2021/03/17 04:48:57;;;;;;;3.17;1.20;;;20.60;31.60;;;;;;5014148;28;20860;-61
2021/03/17 04:51:23;;;;;;;3.07;1.33;;;20.70;31.90;;;;;;5013399;28;20432;-61
2021/03/17 04:53:49;;;;;;;3.50;1.10;;;20.70;32.50;;;;;;5013890;28;20397;-62
2021/03/17 04:56:18;;;;;;;3.67;1.13;;;20.70;32.20;;;;;;5014075;28;20470;-62
2021/03/17 04:58:45;;;;;;;2.30;1.20;;;20.70;32.00;;;;;;5014178;28;20488;-62
2021/03/17 05:01:13;;;;;;;3.08;1.27;;;20.80;32.20;;;;;;5014005;28;20488;-62
2021/03/17 05:03:41;;;;;;;3.15;1.40;;;20.80;32.20;;;;;;5013692;28;20393;-62
2021/03/17 05:06:09;;;;;;;3.58;1.00;;;20.80;32.20;;;;;;5013753;28;20388;-62
2021/03/17 05:08:40;;;;;;;3.05;1.20;;;20.90;32.20;;;;;;5012554;28;20873;-63
2021/03/17 05:11:06;;;;;;;2.90;1.10;;;20.90;33.60;;;;;;5018142;28;20425;-62
2021/03/17 05:13:34;;;;;;;2.35;0.90;;;21.00;32.90;;;;;;5033263;28;20391;-62
2021/03/17 05:16:00;;;;;;;3.13;1.00;;;21.00;32.80;;;;;;5033271;28;20426;-61
2021/03/17 05:18:26;;;;;;;3.30;1.00;;;21.00;33.50;;;;;;5033418;28;20390;-62
2021/03/17 05:20:53;;;;;;;2.20;0.93;;;21.10;33.30;;;;;;5032622;28;20483;-61
2021/03/17 05:23:20;;;;;;;2.20;1.00;;;21.10;33.20;;;;;;5032782;28;20482;-61
2021/03/17 05:25:48;;;;;;;2.55;0.95;;;21.10;33.40;;;;;;5032693;28;20474;-62
2021/03/17 05:28:15;;;;;;;3.13;0.90;;;21.10;34.10;;;;;;5033076;28;20395;-62
2021/03/17 05:30:42;;;;;;;4.32;1.00;;;21.20;34.20;;;;;;5029240;28;20479;-62
2021/03/17 05:33:09;;;;;;;1.92;0.98;;;21.20;34.30;;;;;;5030278;28;20824;-62
2021/03/17 05:35:37;;;;;;;2.42;0.90;;;21.20;34.70;;;;;;5017272;28;20787;-61
2021/03/17 05:38:04;;;;;;;1.70;0.88;;;21.20;34.30;;;;;;5024539;28;20522;-62
2021/03/17 05:40:30;;;;;;;3.05;0.90;;;21.20;34.00;;;;;;5024933;28;20507;-62
2021/03/17 05:43:00;;;;;;;3.30;0.90;;;21.10;33.50;;;;;;5033205;28;20408;-61
2021/03/17 05:45:27;;;;;;;2.15;0.80;;;21.10;33.00;;;;;;5029904;28;20395;-61
2021/03/17 05:47:54;;;;;;;4.53;1.08;;;21.00;33.20;;;;;;5020181;28;20520;-61
2021/03/17 05:50:22;;;;;;;3.83;1.15;;;21.00;32.50;;;;;;5020966;28;20438;-62
2021/03/17 05:52:48;;;;;;;5.63;1.20;;;20.90;32.00;;;;;;5018884;28;20389;-62
2021/03/17 05:55:15;;;;;;;4.77;0.90;;;20.90;32.80;;;;;;5021224;28;20394;-62
2021/03/17 05:57:42;;;;;;;2.47;0.90;;;20.90;32.80;;;;;;5017642;28;20428;-61
2021/03/17 06:00:11;;;;;;;3.13;0.93;;;20.90;32.70;;;;;;5014329;28;20447;-62
2021/03/17 06:02:37;;;;;;;3.00;0.98;;;20.90;32.60;;;;;;5027709;28;20941;-62
2021/03/17 06:05:05;;;;;;;4.20;1.02;;;20.90;32.70;;;;;;5015944;28;20757;-61
2021/03/17 06:07:45;;;;;;;2.80;1.02;;;20.80;32.70;;;;;;5031551;28;20444;-61
2021/03/17 06:10:11;;;;;;;4.18;1.20;;;20.90;32.60;;;;;;5030798;28;20409;-62
2021/03/17 06:12:39;;;;;;;3.72;1.00;;;20.80;32.50;;;;;;5031622;28;20393;-61
2021/03/17 06:15:08;;;;;;;4.43;1.05;;;20.80;33.20;;;;;;5032211;28;20391;-62
2021/03/17 06:17:36;;;;;;;3.92;0.90;;;20.80;32.60;;;;;;5031678;28;20419;-62
2021/03/17 06:20:07;;;;;;;3.08;0.75;;;20.80;32.60;;;;;;5032321;28;20434;-62
2021/03/17 06:22:39;;;;;;;4.87;1.10;;;20.80;32.50;;;;;;5032315;28;20845;-62
2021/03/17 06:25:07;;;;;;;4.60;1.20;;;20.80;32.50;;;;;;5032223;28;20871;-62
2021/03/17 06:27:40;;;;;;;4.07;0.98;;;20.90;32.40;;;;;;5031778;28;20997;-61
2021/03/17 06:30:08;;;;;;;2.40;0.82;;;20.80;32.40;;;;;;5032042;28;20446;-61
2021/03/17 06:32:34;;;;;;;3.03;0.97;;;20.90;32.30;;;;;;5030660;28;20490;-62
2021/03/17 06:35:00;;;;;;;1.70;0.88;;;20.90;32.30;;;;;;5032061;28;20387;-62
2021/03/17 06:37:38;;;;;;;2.00;0.80;;;20.80;32.20;;;;;;5031543;28;20414;-62
2021/03/17 06:40:38;;;;;;;2.00;0.88;;;20.80;32.20;;;;;;5032009;28;20387;-62
2021/03/17 06:43:10;;;;;;;1.75;0.90;;;20.80;32.20;;;;;;5031505;28;20403;-62
2021/03/17 06:45:46;;;;;;;2.53;1.08;;;20.80;32.30;;;;;;5030976;28;20478;-61
2021/03/17 06:48:28;;;;;;;2.10;0.95;;;20.70;32.30;;;;;;5031864;28;21029;-62
2021/03/17 06:51:02;;;;;;;1.48;0.80;;;20.70;32.40;;;;;;5031827;28;20394;-62
2021/03/17 06:53:45;;;;;;;1.85;0.90;;;20.60;32.50;;;;;;5031398;28;20415;-61
2021/03/17 06:56:15;;;;;;;2.22;0.70;;;20.50;32.50;;;;;;5031727;28;20942;-62
2021/03/17 06:58:46;;;;;;;1.80;0.73;;;20.50;32.50;;;;;;5031728;28;20883;-62
2021/03/17 07:01:37;;;;;;;1.30;0.70;;;20.50;32.50;;;;;;5031737;28;20470;-62
2021/03/17 07:04:13;;;;;;;1.25;0.95;;;20.30;32.60;;;;;;5031569;28;20399;-62
2021/03/17 07:06:43;;;;;;;1.70;1.10;;;20.30;32.70;;;;;;5031508;28;20419;-62
2021/03/17 07:09:18;;;;;;;2.50;0.93;;;20.20;32.10;;;;;;5031541;28;20387;-62
2021/03/17 07:11:48;;;;;;;4.93;1.40;;;20.20;33.40;;;;;;5031108;28;20398;-63
2021/03/17 07:14:14;;;;;;;4.05;0.90;;;20.10;33.70;;;;;;5031192;28;20470;-63
2021/03/17 07:16:44;;;;;;;3.10;0.88;;;20.10;34.00;;;;;;5030647;28;20504;-61
2021/03/17 07:19:09;;;;;;;2.90;0.90;;;20.20;35.20;;;;;;5018261;28;20387;-62
2021/03/17 07:21:38;;;;;;;6.38;1.33;;;20.30;34.90;;;;;;5016156;28;20455;-61
2021/03/17 07:24:07;;;;;;;2.87;1.20;;;20.20;34.70;;;;;;5020856;28;20437;-63
2021/03/17 07:26:35;;;;;;;3.72;1.30;;;20.20;34.30;;;;;;5017055;28;20393;-62
2021/03/17 07:29:15;;;;;;;3.30;1.08;;;20.20;34.70;;;;;;5015265;28;20447;-61
2021/03/17 07:31:48;;;;;;;3.75;1.00;;;20.30;35.00;;;;;;5011018;28;20404;-61
2021/03/17 07:34:26;;;;;;;3.47;1.00;;;20.40;34.90;;;;;;5011573;28;20393;-62
2021/03/17 07:37:05;;;;;;;4.07;1.00;;;20.50;34.80;;;;;;5011543;28;20455;-62
2021/03/17 07:39:37;;;;;;;4.40;1.00;;;20.60;34.30;;;;;;5011082;28;20395;-61
2021/03/17 07:42:08;;;;;;;5.28;0.80;;;20.60;34.00;;;;;;5011592;28;20416;-62
2021/03/17 07:44:36;;;;;;;2.42;0.80;;;20.60;33.50;;;;;;5014887;28;20567;-62
2021/03/17 07:47:06;;;;;;;2.85;0.98;;;20.50;33.10;;;;;;5021930;28;20452;-62
2021/03/17 07:49:34;;;;;;;3.33;0.90;;;20.50;32.80;;;;;;5035021;28;20876;-61
2021/03/17 07:52:01;;;;;;;1.57;0.70;;;20.50;32.90;;;;;;5035201;28;20454;-62
2021/03/17 07:54:37;;;;;;;1.45;0.75;;;20.50;32.80;;;;;;5035126;28;20394;-62
2021/03/17 07:57:06;;;;;;;2.00;0.80;;;20.50;32.70;;;;;;5035081;28;20418;-62
2021/03/17 07:59:34;;;;;;;1.75;1.00;;;20.60;32.70;;;;;;5034476;28;20387;-62
2021/03/17 08:02:00;;;;;;;2.55;0.90;;;20.50;32.40;;;;;;5034902;28;20871;-62
2021/03/17 08:04:30;;;;;;;2.83;1.00;;;20.50;33.20;;;;;;5034926;28;20387;-62
2021/03/17 08:06:59;;;;;;;27.73;24.70;;;20.50;33.30;;;;;;5034851;28;20394;-62
2021/03/17 08:09:25;;;;;;;37.67;34.08;;;20.60;33.50;;;;;;5034730;28;20474;-62
2021/03/17 08:11:52;;;;;;;47.77;42.97;;;20.60;33.70;;;;;;5034249;28;20967;-62
2021/03/17 08:14:19;;;;;;;35.78;32.22;;;20.60;34.30;;;;;;5034611;28;20426;-62
2021/03/17 08:16:46;;;;;;;23.83;21.58;;;20.60;33.70;;;;;;5034582;28;20422;-62
2021/03/17 08:19:20;;;;;;;22.30;20.00;;;20.60;33.50;;;;;;5034596;28;20747;-62
2021/03/17 08:21:52;;;;;;;19.05;17.25;;;20.70;33.40;;;;;;5034180;28;20482;-62
2021/03/17 08:24:32;;;;;;;43.95;39.15;;;20.60;33.20;;;;;;5034509;28;20391;-62
2021/03/17 08:27:00;;;;;;;83.50;73.38;;;20.60;33.20;;;;;;5034440;28;20482;-62
2021/03/17 08:29:39;;;;;;;73.20;64.43;;;20.60;32.90;;;;;;5034452;28;20407;-62
2021/03/17 08:32:05;;;;;;;60.67;54.28;;;20.50;32.90;;;;;;5034000;28;20458;-62
2021/03/17 08:34:33;;;;;;;55.50;49.63;;;20.50;32.80;;;;;;5034242;28;20482;-61
2021/03/17 08:37:12;;;;;;;43.55;38.67;;;20.50;33.00;;;;;;5034122;28;20421;-62
2021/03/17 08:39:37;;;;;;;38.95;34.83;;;20.50;33.60;;;;;;5006001;28;20403;-61
2021/03/17 08:42:09;;;;;;;36.20;32.30;;;20.50;32.80;;;;;;5033933;28;20461;-62
2021/03/17 08:44:37;;;;;;;33.13;29.67;;;20.60;33.40;;;;;;5034215;28;20441;-63
2021/03/17 08:47:28;;;;;;;29.15;26.05;;;20.80;32.90;;;;;;5034029;28;20395;-62
2021/03/17 08:49:58;;;;;;;28.02;25.13;;;20.90;32.20;;;;;;5033626;28;20426;-62
2021/03/17 08:52:46;;;;;;;25.73;23.02;;;21.10;32.10;;;;;;5033991;28;20392;-62
2021/03/17 08:55:34;;;;;;;24.05;21.45;;;21.20;31.70;;;;;;5033115;28;20430;-62
2021/03/17 08:58:05;;;;;;;22.88;20.48;;;21.40;31.60;;;;;;5033859;28;20419;-61
2021/03/17 09:00:48;;;;;;;21.25;18.98;;;21.50;31.30;;;;;;5033907;28;20379;-62
2021/03/17 09:03:32;;;;;;;19.08;17.15;;;21.60;31.00;;;;;;5033393;28;20421;-62
2021/03/17 09:06:17;;;;;;;20.30;17.38;;;21.70;30.80;;;;;;5033170;28;20395;-62
2021/03/17 09:08:57;;;;;;;18.98;15.95;;;21.80;31.00;;;;;;5033865;28;20391;-62
2021/03/17 09:11:31;;;;;;;17.73;15.52;;;21.80;30.80;;;;;;5033450;28;20379;-62
2021/03/17 09:14:08;;;;;;;21.20;18.67;;;21.90;30.50;;;;;;5033116;28;20434;-61
2021/03/17 09:16:36;;;;;;;25.90;21.63;;;22.00;30.20;;;;;;5033528;28;20467;-62
2021/03/17 09:19:09;;;;;;;20.95;17.40;;;22.00;29.90;;;;;;5033432;28;20494;-62
2021/03/17 09:21:38;;;;;;;18.13;16.23;;;22.00;30.00;;;;;;5032868;28;20521;-61
2021/03/17 09:24:24;;;;;;;18.33;15.73;;;22.10;30.00;;;;;;5033340;28;20391;-62
2021/03/17 09:26:49;;;;;;;16.67;14.98;;;22.20;30.00;;;;;;5033259;28;20404;-62
2021/03/17 09:29:17;;;;;;;16.33;14.52;;;22.20;30.00;;;;;;5033301;28;20407;-62
2021/03/17 09:31:42;;;;;;;16.55;13.93;;;22.20;30.00;;;;;;5032645;28;20442;-62
2021/03/17 09:34:08;;;;;;;15.25;13.65;;;22.30;30.00;;;;;;5032403;28;20395;-62
2021/03/17 09:36:34;;;;;;;14.23;12.83;;;22.30;29.90;;;;;;5012542;28;20421;-62
2021/03/17 09:39:02;;;;;;;12.88;10.30;;;22.40;30.00;;;;;;5022582;28;20473;-62
2021/03/17 09:41:31;;;;;;;10.77;9.68;;;22.30;29.00;;;;;;5031648;28;20379;-62
2021/03/17 09:43:59;;;;;;;11.25;9.82;;;22.30;29.00;;;;;;5027866;28;20432;-61
2021/03/17 09:46:31;;;;;;;10.70;9.55;;;22.40;29.00;;;;;;5020171;28;20399;-62
2021/03/17 09:49:11;;;;;;;12.98;11.55;;;22.50;29.10;;;;;;5013072;28;20392;-62
2021/03/17 09:51:38;;;;;;;11.80;10.60;;;22.60;29.60;;;;;;5028332;28;20379;-61
2021/03/17 09:54:07;;;;;;;12.82;10.73;;;22.70;29.60;;;;;;5016212;28;20404;-62
2021/03/17 09:56:38;;;;;;;12.68;10.63;;;22.80;29.70;;;;;;5013378;28;20412;-62
2021/03/17 09:59:31;;;;;;;13.57;11.38;;;22.90;29.50;;;;;;5012993;28;21059;-62
2021/03/17 10:02:05;;;;;;;12.30;10.88;;;23.10;29.30;;;;;;5012752;28;20386;-62
2021/03/17 10:04:31;;;;;;;11.03;9.63;;;23.30;29.20;;;;;;5012979;28;20393;-62
2021/03/17 10:06:57;;;;;;;10.55;9.45;;;23.30;29.00;;;;;;5012822;28;20795;-62
2021/03/17 10:09:34;;;;;;;10.00;9.00;;;23.40;28.90;;;;;;5012802;28;20450;-62
2021/03/17 10:12:09;;;;;;;10.02;8.50;;;23.40;28.90;;;;;;5012419;28;20842;-62
2021/03/17 10:14:37;;;;;;;10.88;8.88;;;23.60;28.80;;;;;;5012644;28;20396;-63
2021/03/17 10:17:05;;;;;;;9.05;8.05;;;23.70;28.80;;;;;;5011842;28;20498;-63
2021/03/17 10:19:32;;;;;;;8.40;7.53;;;23.70;27.80;;;;;;5012598;28;20388;-63
2021/03/17 10:21:58;;;;;;;8.60;7.70;;;23.40;28.30;;;;;;5012143;28;21304;-63
2021/03/17 10:24:37;;;;;;;8.77;7.85;;;23.30;28.50;;;;;;5012489;28;20389;-63
2021/03/17 10:27:05;;;;;;;17.73;15.90;;;23.20;28.40;;;;;;5012347;28;20392;-63
2021/03/17 10:29:31;;;;;;;23.30;21.05;;;23.10;28.50;;;;;;5011647;28;20475;-63
2021/03/17 10:31:57;;;;;;;15.80;14.13;;;23.20;28.80;;;;;;5011514;28;20501;-63
2021/03/17 10:34:27;;;;;;;14.73;13.32;;;23.20;28.70;;;;;;5010773;28;20450;-63
2021/03/17 10:36:55;;;;;;;14.23;12.80;;;23.30;28.60;;;;;;5012020;28;20432;-63
2021/03/17 10:39:26;;;;;;;12.88;11.57;;;23.30;28.50;;;;;;5012164;28;20381;-63
2021/03/17 10:41:51;;;;;;;13.20;11.90;;;23.50;28.80;;;;;;5011806;28;20404;-63
2021/03/17 10:44:20;;;;;;;12.70;11.40;;;23.50;28.60;;;;;;5012522;28;20393;-63
2021/03/17 10:47:15;;;;;;;11.85;10.65;;;23.50;28.30;;;;;;5012252;28;20393;-62
2021/03/17 10:49:46;;;;;;;11.18;10.00;;;23.70;28.30;;;;;;5007010;28;20407;-62
2021/03/17 10:52:13;;;;;;;16.35;13.50;;;23.80;28.30;;;;;;5012082;28;20401;-63
2021/03/17 10:54:40;;;;;;;11.27;10.13;;;23.80;28.40;;;;;;5012115;28;20455;-63
2021/03/17 10:57:07;;;;;;;12.50;9.30;;;24.00;28.90;;;;;;5011928;28;20427;-63
2021/03/17 10:59:38;;;;;;;12.40;8.93;;;24.10;29.00;;;;;;5014048;28;20381;-62
2021/03/17 11:02:15;;;;;;;10.20;8.30;;;24.00;29.30;;;;;;5025294;28;20394;-62
2021/03/17 11:05:05;;;;;;;9.57;7.82;;;24.10;29.30;;;;;;5016371;28;20405;-62
2021/03/17 11:07:55;;;;;;;9.68;7.45;;;24.10;29.20;;;;;;5030905;28;20391;-63
2021/03/17 11:10:52;;;;;;;8.85;7.68;;;24.20;29.00;;;;;;5019048;28;20810;-62
2021/03/17 11:13:18;;;;;;;8.77;7.38;;;24.20;29.00;;;;;;5001753;28;20939;-63
2021/03/17 11:15:46;;;;;;;9.82;7.30;;;24.30;28.80;;;;;;5030858;28;20474;-62
2021/03/17 11:18:24;;;;;;;18.58;14.40;;;24.40;28.90;;;;;;5019578;28;20881;-62
2021/03/17 11:20:50;;;;;;;12.05;8.20;;;24.20;28.90;;;;;;5028006;28;20383;-63
2021/03/17 11:23:21;;;;;;;10.23;7.70;;;24.30;28.80;;;;;;5027773;28;20853;-63
2021/03/17 11:25:48;;;;;;;8.05;6.97;;;24.30;28.70;;;;;;5018865;28;20389;-62
2021/03/17 11:28:15;;;;;;;9.45;7.05;;;24.30;28.60;;;;;;5029937;28;20818;-63
2021/03/17 11:30:47;;;;;;;8.55;7.10;;;24.40;28.60;;;;;;5016017;28;20889;-63
2021/03/17 11:33:14;;;;;;;7.65;6.32;;;24.50;28.60;;;;;;5027825;28;20415;-62
2021/03/17 11:35:43;;;;;;;7.43;6.50;;;24.50;28.50;;;;;;5017905;28;20387;-63
2021/03/17 11:38:10;;;;;;;7.82;6.47;;;24.50;28.60;;;;;;5018977;28;20463;-63
2021/03/17 11:40:36;;;;;;;10.67;6.07;;;24.60;28.50;;;;;;5026086;28;20478;-63
2021/03/17 11:43:14;;;;;;;7.50;6.55;;;24.60;28.40;;;;;;5014895;28;20397;-62
2021/03/17 11:45:41;;;;;;;7.10;5.93;;;24.60;28.40;;;;;;5024339;28;20439;-63
2021/03/17 11:48:08;;;;;;;6.53;5.40;;;24.60;28.60;;;;;;5021153;28;20399;-63
2021/03/17 11:50:35;;;;;;;6.13;5.10;;;24.60;28.60;;;;;;5015730;28;20816;-63
2021/03/17 11:53:02;;;;;;;6.78;5.65;;;24.70;28.50;;;;;;5028089;28;20529;-63
2021/03/17 11:55:28;;;;;;;6.10;5.32;;;24.70;28.50;;;;;;5013012;28;20745;-64
2021/03/17 11:57:54;;;;;;;6.65;5.78;;;24.80;28.30;;;;;;5010914;28;20488;-63
2021/03/17 12:00:20;;;;;;;8.52;4.95;;;24.70;27.90;;;;;;5011431;28;20385;-63
2021/03/17 12:02:46;;;;;;;7.63;5.00;;;24.70;28.50;;;;;;5011398;28;20476;-63
2021/03/17 12:05:13;;;;;;;10.15;7.32;;;24.70;28.50;;;;;;5010946;28;20483;-62
2021/03/17 12:07:39;;;;;;;12.48;10.70;;;24.70;28.90;;;;;;5010560;28;20415;-62
2021/03/17 12:10:06;;;;;;;7.70;6.73;;;24.80;28.70;;;;;;5009706;28;20393;-63
2021/03/17 12:12:33;;;;;;;7.38;5.97;;;25.00;28.50;;;;;;5011056;28;20762;-62
2021/03/17 12:14:58;;;;;;;9.15;5.80;;;25.00;28.70;;;;;;5011230;28;20392;-62
2021/03/17 12:17:25;;;;;;;6.13;5.50;;;25.20;28.70;;;;;;5011138;28;20420;-64
2021/03/17 12:19:50;;;;;;;6.60;5.90;;;25.40;28.70;;;;;;5010534;28;20431;-63
2021/03/17 12:22:16;;;;;;;7.68;5.38;;;25.50;28.50;;;;;;5011175;28;20429;-63
2021/03/17 12:24:42;;;;;;;6.60;5.33;;;25.60;28.40;;;;;;5009970;28;20444;-63
2021/03/17 12:27:10;;;;;;;6.35;5.20;;;25.70;28.30;;;;;;5011131;28;20758;-63
2021/03/17 12:29:36;;;;;;;6.43;5.25;;;25.80;28.40;;;;;;5012786;28;20385;-63
2021/03/17 12:32:02;;;;;;;7.50;5.20;;;25.80;28.40;;;;;;5013857;28;20417;-64
2021/03/17 12:34:28;;;;;;;7.35;5.25;;;25.90;28.90;;;;;;5014291;28;20892;-64
2021/03/17 12:36:55;;;;;;;6.45;5.30;;;26.10;29.40;;;;;;5014589;28;20424;-63
2021/03/17 12:39:21;;;;;;;7.88;5.18;;;26.10;29.60;;;;;;5014393;28;20396;-63
2021/03/17 12:41:47;;;;;;;6.72;4.97;;;26.20;29.70;;;;;;5014069;28;20420;-63
2021/03/17 12:44:13;;;;;;;8.65;4.85;;;26.30;29.40;;;;;;5014391;28;20756;-63
2021/03/17 12:46:38;;;;;;;9.07;4.77;;;26.30;29.30;;;;;;5013064;28;20428;-63
2021/03/17 12:49:04;;;;;;;8.98;4.75;;;26.40;29.40;;;;;;5014228;28;20730;-63
2021/03/17 12:51:30;;;;;;;7.57;4.33;;;26.30;29.40;;;;;;5014211;28;20389;-63
2021/03/17 12:53:56;;;;;;;5.97;4.40;;;26.30;29.50;;;;;;5013830;28;20396;-63
2021/03/17 12:56:21;;;;;;;10.37;4.67;;;26.20;29.50;;;;;;5014121;28;20531;-63